Weather at Orlando International Airport

Public forecast

Using degrees Fahrenheit for public forecast. Weather courtesy of forecast.io.

Current aviation weather report (METAR) for Orlando International Airport

2024/04/22 12:53 (retrieved 57 minutes ago)

KMCO 221253Z 33010KT 10SM FEW010 OVC014 18/16 A3000 RMK AO2 SLP157 T01830156

Aviation forecast (TAF) for Orlando International Airport

2024/04/22 12:42 (retrieved 1 hour ago)

TAF KMCO 221139Z 2212/2318 36011KT P6SM OVC012 FM221500 34010G16KT P6SM SCT015 SCT025 BKN035 FM222000 02015G25KT P6SM SCT050 FM230300 01007KT P6SM FEW050 FM231400 06011KT P6SM FEW050